Eureka, California
Current Conditions -  °F | °C
As of 5:53 PM on Friday 24 Oct 2014 (Local Time) from KACV Reporting Station
Clear Clear  
Wind Chill: 67°   Ceiling: Unl
Heat Index: 67°   Visibility: 10mi
Dew Point: 55°   Wind: 16mph
Humidity: 66%   Direction: 190°S
Pressure: 29.7"   Gusts: NA
Location:  40.8°N, 124.15°W
Report Text: KACV 250053Z AUTO 19014KT 10SM CLR 19/13 A2970 RMK AO2 SLP060 T01940128
Loading
Personal Weather Stations






























Interactive Weather Map New forecast layout! Learn more

10-Day Weather Forecast

Advertisements
Track Severe Weather on mobile